sensor_id;sensor_type;location;lat;lon;timestamp;pressure;altitude;pressure_sealevel;temperature;humidity
50977;BME280;36992;48.200;12.418;2022-10-15T00:00:18;96370.97;;;17.90;57.33
50977;BME280;36992;48.200;12.418;2022-10-15T00:02:45;96369.81;;;17.91;57.46
50977;BME280;36992;48.200;12.418;2022-10-15T00:05:11;96372.53;;;17.91;57.39
50977;BME280;36992;48.200;12.418;2022-10-15T00:07:39;96363.22;;;17.92;56.98
50977;BME280;36992;48.200;12.418;2022-10-15T00:10:06;96369.03;;;17.91;57.26
50977;BME280;36992;48.200;12.418;2022-10-15T00:12:33;96361.66;;;17.91;57.61
50977;BME280;36992;48.200;12.418;2022-10-15T00:15:00;96356.19;;;17.91;58.08
50977;BME280;36992;48.200;12.418;2022-10-15T00:17:27;96354.63;;;17.90;58.02
50977;BME280;36992;48.200;12.418;2022-10-15T00:19:53;96358.91;;;17.91;57.38
50977;BME280;36992;48.200;12.418;2022-10-15T00:22:20;96355.75;;;17.89;57.67
50977;BME280;36992;48.200;12.418;2022-10-15T00:24:48;96358.50;;;17.89;57.58
50977;BME280;36992;48.200;12.418;2022-10-15T00:27:14;96346.69;;;17.85;57.70
50977;BME280;36992;48.200;12.418;2022-10-15T00:29:41;96357.59;;;17.85;57.41
50977;BME280;36992;48.200;12.418;2022-10-15T00:32:08;96354.44;;;17.83;58.18
50977;BME280;36992;48.200;12.418;2022-10-15T00:34:35;96345.78;;;17.81;57.07
50977;BME280;36992;48.200;12.418;2022-10-15T00:37:01;96344.22;;;17.80;57.15
50977;BME280;36992;48.200;12.418;2022-10-15T00:39:28;96353.53;;;17.79;57.59
50977;BME280;36992;48.200;12.418;2022-10-15T00:41:56;96349.66;;;17.80;57.62
50977;BME280;36992;48.200;12.418;2022-10-15T00:44:49;96343.16;;;17.85;57.19
50977;BME280;36992;48.200;12.418;2022-10-15T00:47:18;96353.53;;;17.79;57.67
50977;BME280;36992;48.200;12.418;2022-10-15T00:49:47;96348.09;;;17.79;57.67
50977;BME280;36992;48.200;12.418;2022-10-15T00:52:19;96353.19;;;17.80;57.72
50977;BME280;36992;48.200;12.418;2022-10-15T00:54:50;96344.22;;;17.80;57.53
50977;BME280;36992;48.200;12.418;2022-10-15T00:57:19;96341.84;;;17.78;57.09
50977;BME280;36992;48.200;12.418;2022-10-15T00:59:48;96337.19;;;17.79;57.51
50977;BME280;36992;48.200;12.418;2022-10-15T01:02:17;96328.59;;;17.77;58.10
50977;BME280;36992;48.200;12.418;2022-10-15T01:04:44;96323.13;;;17.77;57.21
50977;BME280;36992;48.200;12.418;2022-10-15T01:07:11;96325.06;;;17.76;57.96
50977;BME280;36992;48.200;12.418;2022-10-15T01:09:38;96322.34;;;17.76;58.10
50977;BME280;36992;48.200;12.418;2022-10-15T01:12:13;96322.41;;;17.80;57.29
50977;BME280;36992;48.200;12.418;2022-10-15T01:14:48;96316.97;;;17.80;57.32
50977;BME280;36992;48.200;12.418;2022-10-15T01:17:20;96319.25;;;17.78;57.53
50977;BME280;36992;48.200;12.418;2022-10-15T01:20:18;96316.97;;;17.80;57.17
50977;BME280;36992;48.200;12.418;2022-10-15T01:22:59;96299.06;;;17.79;57.09
50977;BME280;36992;48.200;12.418;2022-10-15T01:25:43;96299.06;;;17.79;57.43
50977;BME280;36992;48.200;12.418;2022-10-15T01:28:22;96285.00;;;17.77;57.70
50977;BME280;36992;48.200;12.418;2022-10-15T01:30:56;96277.16;;;17.75;57.69
50977;BME280;36992;48.200;12.418;2022-10-15T01:33:31;96275.59;;;17.74;57.78
50977;BME280;36992;48.200;12.418;2022-10-15T01:36:08;96268.19;;;17.75;57.47
50977;BME280;36992;48.200;12.418;2022-10-15T01:38:48;96273.66;;;17.75;58.00
50977;BME280;36992;48.200;12.418;2022-10-15T01:41:21;96266.97;;;17.72;57.33
50977;BME280;36992;48.200;12.418;2022-10-15T01:43:57;96265.03;;;17.73;57.70
50977;BME280;36992;48.200;12.418;2022-10-15T01:46:29;96255.28;;;17.72;57.42
50977;BME280;36992;48.200;12.418;2022-10-15T01:49:01;96259.50;;;17.69;58.11
50977;BME280;36992;48.200;12.418;2022-10-15T01:51:31;96257.13;;;17.67;58.24
50977;BME280;36992;48.200;12.418;2022-10-15T01:53:59;96266.00;;;17.64;58.14
50977;BME280;36992;48.200;12.418;2022-10-15T01:56:26;96260.56;;;17.64;58.19
50977;BME280;36992;48.200;12.418;2022-10-15T01:58:54;96253.97;;;17.65;57.91
50977;BME280;36992;48.200;12.418;2022-10-15T02:01:21;96254.66;;;17.62;58.29
50977;BME280;36992;48.200;12.418;2022-10-15T02:03:51;96254.75;;;17.66;57.97
50977;BME280;36992;48.200;12.418;2022-10-15T02:06:22;96247.72;;;17.65;58.24
50977;BME280;36992;48.200;12.418;2022-10-15T02:08:58;96245.78;;;17.65;57.54
50977;BME280;36992;48.200;12.418;2022-10-15T02:11:28;96239.47;;;17.61;58.31
50977;BME280;36992;48.200;12.418;2022-10-15T02:14:00;96233.31;;;17.64;57.96
50977;BME280;36992;48.200;12.418;2022-10-15T02:16:33;96241.03;;;17.62;58.81
50977;BME280;36992;48.200;12.418;2022-10-15T02:19:09;96242.63;;;17.63;58.01
50977;BME280;36992;48.200;12.418;2022-10-15T02:21:41;96240.25;;;17.62;57.86
50977;BME280;36992;48.200;12.418;2022-10-15T02:24:14;96237.53;;;17.62;57.65
50977;BME280;36992;48.200;12.418;2022-10-15T02:26:43;96230.41;;;17.57;58.46
50977;BME280;36992;48.200;12.418;2022-10-15T02:29:12;96229.28;;;17.58;58.20
50977;BME280;36992;48.200;12.418;2022-10-15T02:31:43;96230.84;;;17.59;58.86
50977;BME280;36992;48.200;12.418;2022-10-15T02:34:16;96226.97;;;17.60;57.97
50977;BME280;36992;48.200;12.418;2022-10-15T02:36:44;96226.09;;;17.56;58.15
50977;BME280;36992;48.200;12.418;2022-10-15T02:39:15;96219.97;;;17.59;58.09
50977;BME280;36992;48.200;12.418;2022-10-15T02:41:43;96214.44;;;17.56;58.21
50977;BME280;36992;48.200;12.418;2022-10-15T02:44:11;96213.63;;;17.55;58.65
50977;BME280;36992;48.200;12.418;2022-10-15T02:46:37;96218.25;;;17.55;58.32
50977;BME280;36992;48.200;12.418;2022-10-15T02:49:04;96218.25;;;17.55;58.88
50977;BME280;36992;48.200;12.418;2022-10-15T02:51:33;96209.75;;;17.56;58.20
50977;BME280;36992;48.200;12.418;2022-10-15T02:54:01;96213.19;;;17.53;58.36
50977;BME280;36992;48.200;12.418;2022-10-15T02:56:29;96212.03;;;17.54;58.56
50977;BME280;36992;48.200;12.418;2022-10-15T02:58:56;96205.81;;;17.53;58.54
50977;BME280;36992;48.200;12.418;2022-10-15T03:01:22;96201.16;;;17.54;58.96
50977;BME280;36992;48.200;12.418;2022-10-15T03:03:49;96201.16;;;17.54;58.55
50977;BME280;36992;48.200;12.418;2022-10-15T03:06:16;96199.56;;;17.53;58.89
50977;BME280;36992;48.200;12.418;2022-10-15T03:08:44;96198.09;;;17.56;58.62
50977;BME280;36992;48.200;12.418;2022-10-15T03:11:11;96199.56;;;17.53;58.56
50977;BME280;36992;48.200;12.418;2022-10-15T03:13:39;96208.88;;;17.52;58.92
50977;BME280;36992;48.200;12.418;2022-10-15T03:16:07;96198.00;;;17.52;58.34
50977;BME280;36992;48.200;12.418;2022-10-15T03:18:34;96199.13;;;17.51;59.07
50977;BME280;36992;48.200;12.418;2022-10-15T03:21:00;96199.13;;;17.51;58.79
50977;BME280;36992;48.200;12.418;2022-10-15T03:23:27;96189.38;;;17.50;58.46
50977;BME280;36992;48.200;12.418;2022-10-15T03:25:55;96187.09;;;17.52;59.03
50977;BME280;36992;48.200;12.418;2022-10-15T03:28:22;96185.88;;;17.49;58.70
50977;BME280;36992;48.200;12.418;2022-10-15T03:30:48;96182.34;;;17.49;59.39
50977;BME280;36992;48.200;12.418;2022-10-15T03:33:15;96199.03;;;17.47;59.25
50977;BME280;36992;48.200;12.418;2022-10-15T03:35:42;96195.53;;;17.47;58.95
50977;BME280;36992;48.200;12.418;2022-10-15T03:38:08;96180.69;;;17.44;58.51
50977;BME280;36992;48.200;12.418;2022-10-15T03:40:35;96196.22;;;17.44;58.59
50977;BME280;36992;48.200;12.418;2022-10-15T03:43:03;96187.72;;;17.45;59.64
50977;BME280;36992;48.200;12.418;2022-10-15T03:45:31;96194.63;;;17.43;59.51
50977;BME280;36992;48.200;12.418;2022-10-15T03:47:58;96191.50;;;17.41;58.19
50977;BME280;36992;48.200;12.418;2022-10-15T03:50:25;96199.28;;;17.42;58.78
50977;BME280;36992;48.200;12.418;2022-10-15T03:52:51;96198.50;;;17.42;59.25
50977;BME280;36992;48.200;12.418;2022-10-15T03:55:18;96188.75;;;17.41;59.84
50977;BME280;36992;48.200;12.418;2022-10-15T03:57:44;96193.41;;;17.40;59.01
50977;BME280;36992;48.200;12.418;2022-10-15T04:00:14;96193.06;;;17.42;59.31
50977;BME280;36992;48.200;12.418;2022-10-15T04:02:40;96192.16;;;17.37;58.94
50977;BME280;36992;48.200;12.418;2022-10-15T04:05:07;96190.59;;;17.36;59.36
50977;BME280;36992;48.200;12.418;2022-10-15T04:07:34;96194.47;;;17.35;59.35
50977;BME280;36992;48.200;12.418;2022-10-15T04:10:01;96192.88;;;17.34;59.43
50977;BME280;36992;48.200;12.418;2022-10-15T04:12:28;96192.06;;;17.34;59.78
50977;BME280;36992;48.200;12.418;2022-10-15T04:14:54;96194.38;;;17.32;59.52
50977;BME280;36992;48.200;12.418;2022-10-15T04:17:22;96189.69;;;17.32;59.11
50977;BME280;36992;48.200;12.418;2022-10-15T04:19:49;96191.19;;;17.30;59.38
50977;BME280;36992;48.200;12.418;2022-10-15T04:22:15;96196.63;;;17.30;60.33
50977;BME280;36992;48.200;12.418;2022-10-15T04:24:42;96194.28;;;17.28;59.89
50977;BME280;36992;48.200;12.418;2022-10-15T04:27:11;96198.16;;;17.27;60.06
50977;BME280;36992;48.200;12.418;2022-10-15T04:29:38;96188.38;;;17.26;60.38
50977;BME280;36992;48.200;12.418;2022-10-15T04:32:05;96187.94;;;17.24;60.06
50977;BME280;36992;48.200;12.418;2022-10-15T04:34:32;96190.31;;;17.25;59.67
50977;BME280;36992;48.200;12.418;2022-10-15T04:36:59;96182.50;;;17.24;59.87
50977;BME280;36992;48.200;12.418;2022-10-15T04:39:25;96194.53;;;17.23;59.75
50977;BME280;36992;48.200;12.418;2022-10-15T04:41:52;96183.63;;;17.23;60.14
50977;BME280;36992;48.200;12.418;2022-10-15T04:44:19;96188.28;;;17.22;59.92
50977;BME280;36992;48.200;12.418;2022-10-15T04:46:45;96186.38;;;17.23;59.52
50977;BME280;36992;48.200;12.418;2022-10-15T04:49:12;96184.78;;;17.22;59.86
50977;BME280;36992;48.200;12.418;2022-10-15T04:51:40;96189.50;;;17.25;59.46
50977;BME280;36992;48.200;12.418;2022-10-15T04:54:06;96187.94;;;17.24;59.90
50977;BME280;36992;48.200;12.418;2022-10-15T04:56:33;96181.72;;;17.23;59.57
50977;BME280;36992;48.200;12.418;2022-10-15T04:58:59;96177.84;;;17.24;59.63
50977;BME280;36992;48.200;12.418;2022-10-15T05:01:26;96175.13;;;17.24;59.43
50977;BME280;36992;48.200;12.418;2022-10-15T05:03:52;96172.41;;;17.24;60.60
50977;BME280;36992;48.200;12.418;2022-10-15T05:06:20;96178.63;;;17.25;59.46
50977;BME280;36992;48.200;12.418;2022-10-15T05:08:48;96165.81;;;17.25;59.27
50977;BME280;36992;48.200;12.418;2022-10-15T05:11:17;96172.41;;;17.24;59.95
50977;BME280;36992;48.200;12.418;2022-10-15T05:13:44;96177.06;;;17.24;60.11
50977;BME280;36992;48.200;12.418;2022-10-15T05:16:13;96179.44;;;17.25;59.50
50977;BME280;36992;48.200;12.418;2022-10-15T05:18:40;96168.88;;;17.24;60.27
50977;BME280;36992;48.200;12.418;2022-10-15T05:21:07;96170.84;;;17.23;60.09
50977;BME280;36992;48.200;12.418;2022-10-15T05:23:34;96170.03;;;17.23;60.09
50977;BME280;36992;48.200;12.418;2022-10-15T05:26:04;96174.00;;;17.25;59.93
50977;BME280;36992;48.200;12.418;2022-10-15T05:28:31;96167.66;;;17.21;60.41
50977;BME280;36992;48.200;12.418;2022-10-15T05:31:03;96167.31;;;17.23;60.26
50977;BME280;36992;48.200;12.418;2022-10-15T05:33:29;96170.72;;;17.20;60.21
50977;BME280;36992;48.200;12.418;2022-10-15T05:35:56;96171.84;;;17.19;60.54
50977;BME280;36992;48.200;12.418;2022-10-15T05:38:22;96172.22;;;17.17;60.69
50977;BME280;36992;48.200;12.418;2022-10-15T05:40:49;96176.88;;;17.17;60.49
50977;BME280;36992;48.200;12.418;2022-10-15T05:43:17;96174.16;;;17.17;60.55
50977;BME280;36992;48.200;12.418;2022-10-15T05:45:44;96177.56;;;17.13;60.92
50977;BME280;36992;48.200;12.418;2022-10-15T05:48:10;96186.84;;;17.12;61.16
50977;BME280;36992;48.200;12.418;2022-10-15T05:50:37;96193.44;;;17.11;60.91
50977;BME280;36992;48.200;12.418;2022-10-15T05:53:03;96185.28;;;17.11;60.53
50977;BME280;36992;48.200;12.418;2022-10-15T05:55:30;96186.00;;;17.08;61.41
50977;BME280;36992;48.200;12.418;2022-10-15T05:58:00;96191.88;;;17.10;61.36
50977;BME280;36992;48.200;12.418;2022-10-15T06:00:28;96190.28;;;17.09;60.98
50977;BME280;36992;48.200;12.418;2022-10-15T06:02:55;96201.84;;;17.06;61.63
50977;BME280;36992;48.200;12.418;2022-10-15T06:05:21;96192.13;;;17.05;61.64
50977;BME280;36992;48.200;12.418;2022-10-15T06:07:48;96199.84;;;17.03;62.05
50977;BME280;36992;48.200;12.418;2022-10-15T06:10:14;96202.06;;;17.01;61.59
50977;BME280;36992;48.200;12.418;2022-10-15T06:12:41;96206.72;;;17.01;61.73
50977;BME280;36992;48.200;12.418;2022-10-15T06:15:09;96207.06;;;16.99;62.15
50977;BME280;36992;48.200;12.418;2022-10-15T06:17:37;96208.66;;;17.00;61.55
50977;BME280;36992;48.200;12.418;2022-10-15T06:20:04;96212.50;;;16.99;62.16
50977;BME280;36992;48.200;12.418;2022-10-15T06:22:31;96212.09;;;16.97;62.52
50977;BME280;36992;48.200;12.418;2022-10-15T06:24:58;96218.66;;;16.96;62.79
50977;BME280;36992;48.200;12.418;2022-10-15T06:27:25;96221.81;;;16.98;62.36
50977;BME280;36992;48.200;12.418;2022-10-15T06:29:52;96221.81;;;16.98;62.61
50977;BME280;36992;48.200;12.418;2022-10-15T06:32:18;96232.25;;;16.96;62.80
50977;BME280;36992;48.200;12.418;2022-10-15T06:34:46;96231.56;;;16.99;62.69
50977;BME280;36992;48.200;12.418;2022-10-15T06:37:13;96235.44;;;16.98;62.64
50977;BME280;36992;48.200;12.418;2022-10-15T06:39:39;96235.44;;;16.98;62.70
50977;BME280;36992;48.200;12.418;2022-10-15T06:42:06;96240.88;;;16.98;62.72
50977;BME280;36992;48.200;12.418;2022-10-15T06:44:32;96243.91;;;16.96;63.54
50977;BME280;36992;48.200;12.418;2022-10-15T06:47:00;96249.38;;;16.96;63.55
50977;BME280;36992;48.200;12.418;2022-10-15T06:49:26;96246.97;;;16.95;63.16
50977;BME280;36992;48.200;12.418;2022-10-15T06:51:54;96256.84;;;16.99;62.79
50977;BME280;36992;48.200;12.418;2022-10-15T06:54:21;96262.63;;;16.98;62.96
50977;BME280;36992;48.200;12.418;2022-10-15T06:56:47;96260.34;;;17.00;62.86
50977;BME280;36992;48.200;12.418;2022-10-15T06:59:14;96263.06;;;17.00;63.35
50977;BME280;36992;48.200;12.418;2022-10-15T07:01:41;96269.00;;;17.02;63.06
50977;BME280;36992;48.200;12.418;2022-10-15T07:04:07;96271.22;;;17.00;63.66
50977;BME280;36992;48.200;12.418;2022-10-15T07:06:34;96284.84;;;17.00;63.94
50977;BME280;36992;48.200;12.418;2022-10-15T07:09:03;96277.16;;;17.02;64.11
50977;BME280;36992;48.200;12.418;2022-10-15T07:11:30;96285.78;;;17.04;63.36
50977;BME280;36992;48.200;12.418;2022-10-15T07:13:56;96290.06;;;17.05;63.86
50977;BME280;36992;48.200;12.418;2022-10-15T07:16:23;96286.19;;;17.06;63.14
50977;BME280;36992;48.200;12.418;2022-10-15T07:18:50;96284.63;;;17.05;63.93
50977;BME280;36992;48.200;12.418;2022-10-15T07:21:16;96295.94;;;17.07;63.85
50977;BME280;36992;48.200;12.418;2022-10-15T07:23:43;96298.00;;;17.10;63.90
50977;BME280;36992;48.200;12.418;2022-10-15T07:26:11;96301.16;;;17.12;64.04
50977;BME280;36992;48.200;12.418;2022-10-15T07:28:38;96301.16;;;17.12;63.93
50977;BME280;36992;48.200;12.418;2022-10-15T07:31:05;96310.91;;;17.13;63.52
50977;BME280;36992;48.200;12.418;2022-10-15T07:33:33;96311.34;;;17.16;63.53
50977;BME280;36992;48.200;12.418;2022-10-15T07:36:02;96323.81;;;17.17;64.16
50977;BME280;36992;48.200;12.418;2022-10-15T07:38:29;96313.38;;;17.19;63.84
50977;BME280;36992;48.200;12.418;2022-10-15T07:40:57;96320.88;;;17.22;63.81
50977;BME280;36992;48.200;12.418;2022-10-15T07:43:25;96322.78;;;17.21;63.93
50977;BME280;36992;48.200;12.418;2022-10-15T07:45:52;96326.31;;;17.22;64.22
50977;BME280;36992;48.200;12.418;2022-10-15T07:48:18;96324.03;;;17.24;63.54
50977;BME280;36992;48.200;12.418;2022-10-15T07:50:45;96327.19;;;17.26;63.56
50977;BME280;36992;48.200;12.418;2022-10-15T07:53:11;96331.06;;;17.25;64.03
50977;BME280;36992;48.200;12.418;2022-10-15T07:55:38;96327.19;;;17.26;64.66
50977;BME280;36992;48.200;12.418;2022-10-15T07:58:05;96330.38;;;17.28;64.18
50977;BME280;36992;48.200;12.418;2022-10-15T08:00:34;96343.75;;;17.33;63.78
50977;BME280;36992;48.200;12.418;2022-10-15T08:03:00;96345.31;;;17.34;64.24
50977;BME280;36992;48.200;12.418;2022-10-15T08:05:27;96345.31;;;17.34;64.55
50977;BME280;36992;48.200;12.418;2022-10-15T08:07:53;96344.63;;;17.37;64.69
50977;BME280;36992;48.200;12.418;2022-10-15T08:10:20;96339.66;;;17.39;65.05
50977;BME280;36992;48.200;12.418;2022-10-15T08:12:47;96350.16;;;17.41;65.06
50977;BME280;36992;48.200;12.418;2022-10-15T08:15:13;96350.16;;;17.41;65.39
50977;BME280;36992;48.200;12.418;2022-10-15T08:17:42;96350.34;;;17.48;64.76
50977;BME280;36992;48.200;12.418;2022-10-15T08:20:09;96349.59;;;17.48;64.59
50977;BME280;36992;48.200;12.418;2022-10-15T08:22:36;96367.94;;;17.51;64.73
50977;BME280;36992;48.200;12.418;2022-10-15T08:25:03;96373.84;;;17.53;65.46
50977;BME280;36992;48.200;12.418;2022-10-15T08:27:29;96373.84;;;17.53;66.09
50977;BME280;36992;48.200;12.418;2022-10-15T08:29:56;96370.41;;;17.56;65.98
50977;BME280;36992;48.200;12.418;2022-10-15T08:32:22;96380.63;;;17.59;65.40
50977;BME280;36992;48.200;12.418;2022-10-15T08:34:50;96387.75;;;17.64;65.62
50977;BME280;36992;48.200;12.418;2022-10-15T08:37:17;96379.94;;;17.62;66.14
50977;BME280;36992;48.200;12.418;2022-10-15T08:39:43;96385.13;;;17.67;65.73
50977;BME280;36992;48.200;12.418;2022-10-15T08:42:16;96379.44;;;17.73;65.60
50977;BME280;36992;48.200;12.418;2022-10-15T08:44:46;96386.56;;;17.77;65.76
50977;BME280;36992;48.200;12.418;2022-10-15T08:47:24;96389.38;;;17.81;65.17
50977;BME280;36992;48.200;12.418;2022-10-15T08:49:55;96398.47;;;17.85;64.78
50977;BME280;36992;48.200;12.418;2022-10-15T08:52:25;96399.69;;;17.88;65.29
50977;BME280;36992;48.200;12.418;2022-10-15T08:54:55;96398.56;;;17.89;66.36
50977;BME280;36992;48.200;12.418;2022-10-15T08:57:35;96398.41;;;17.98;65.39
50977;BME280;36992;48.200;12.418;2022-10-15T09:00:10;96407.34;;;17.98;65.28
50977;BME280;36992;48.200;12.418;2022-10-15T09:02:42;96414.13;;;18.04;64.71
50977;BME280;36992;48.200;12.418;2022-10-15T09:05:21;96410.75;;;18.08;64.84
50977;BME280;36992;48.200;12.418;2022-10-15T09:07:53;96410.41;;;18.09;64.70
50977;BME280;36992;48.200;12.418;2022-10-15T09:10:27;96426.94;;;18.16;64.33
50977;BME280;36992;48.200;12.418;2022-10-15T09:13:00;96422.75;;;18.19;64.16
50977;BME280;36992;48.200;12.418;2022-10-15T09:15:32;96430.19;;;18.22;63.76
50977;BME280;36992;48.200;12.418;2022-10-15T09:17:59;96428.63;;;18.21;63.99
50977;BME280;36992;48.200;12.418;2022-10-15T09:20:32;96428.38;;;18.26;64.25
50977;BME280;36992;48.200;12.418;2022-10-15T09:22:59;96426.44;;;18.27;63.70
50977;BME280;36992;48.200;12.418;2022-10-15T09:25:31;96440.25;;;18.34;63.21
50977;BME280;36992;48.200;12.418;2022-10-15T09:28:07;96437.06;;;18.32;63.37
50977;BME280;36992;48.200;12.418;2022-10-15T09:30:38;96444.56;;;18.35;62.95
50977;BME280;36992;48.200;12.418;2022-10-15T09:33:14;96443.16;;;18.41;62.58
50977;BME280;36992;48.200;12.418;2022-10-15T09:35:46;96448.28;;;18.43;63.38
50977;BME280;36992;48.200;12.418;2022-10-15T09:38:26;96451.09;;;18.46;62.48
50977;BME280;36992;48.200;12.418;2022-10-15T09:41:06;96459.81;;;18.52;62.54
50977;BME280;36992;48.200;12.418;2022-10-15T09:43:43;96463.59;;;18.47;62.36
50977;BME280;36992;48.200;12.418;2022-10-15T09:46:10;96460.06;;;18.47;62.55
50977;BME280;36992;48.200;12.418;2022-10-15T09:48:40;96465.34;;;18.56;62.50
50977;BME280;36992;48.200;12.418;2022-10-15T09:51:21;96475.56;;;18.59;62.17
50977;BME280;36992;48.200;12.418;2022-10-15T09:53:53;96467.63;;;18.54;61.83
50977;BME280;36992;48.200;12.418;2022-10-15T09:56:24;96476.81;;;18.62;61.99
50977;BME280;36992;48.200;12.418;2022-10-15T09:58:53;96470.97;;;18.63;61.33
50977;BME280;36992;48.200;12.418;2022-10-15T10:01:22;96479.63;;;18.65;60.18
50977;BME280;36992;48.200;12.418;2022-10-15T10:03:51;96481.19;;;18.66;59.81
50977;BME280;36992;48.200;12.418;2022-10-15T10:06:21;96471.06;;;18.67;59.18
50977;BME280;36992;48.200;12.418;2022-10-15T10:08:51;96481.72;;;18.72;58.55
50977;BME280;36992;48.200;12.418;2022-10-15T10:11:19;96475.03;;;18.69;58.51
50977;BME280;36992;48.200;12.418;2022-10-15T10:13:50;96487.53;;;18.70;58.28
50977;BME280;36992;48.200;12.418;2022-10-15T10:16:19;96483.75;;;18.75;57.63
50977;BME280;36992;48.200;12.418;2022-10-15T10:19:02;96471.34;;;18.78;56.63
50977;BME280;36992;48.200;12.418;2022-10-15T10:21:32;96457.00;;;18.81;56.94
50977;BME280;36992;48.200;12.418;2022-10-15T10:24:18;96441.94;;;18.87;56.69
50977;BME280;36992;48.200;12.418;2022-10-15T10:26:45;96437.28;;;18.87;56.74
50977;BME280;36992;48.200;12.418;2022-10-15T10:29:17;96444.06;;;18.94;56.05
50977;BME280;36992;48.200;12.418;2022-10-15T10:31:44;96463.94;;;18.94;55.99
50977;BME280;36992;48.200;12.418;2022-10-15T10:34:17;96466.41;;;18.99;56.24
50977;BME280;36992;48.200;12.418;2022-10-15T10:36:50;96466.25;;;19.08;57.40
50977;BME280;36992;48.200;12.418;2022-10-15T10:39:24;96467.91;;;19.13;57.52
50977;BME280;36992;48.200;12.418;2022-10-15T10:41:53;96467.13;;;19.12;57.31
50977;BME280;36992;48.200;12.418;2022-10-15T10:44:25;96467.22;;;19.16;57.06
50977;BME280;36992;48.200;12.418;2022-10-15T10:47:08;96464.66;;;19.23;57.06
50977;BME280;36992;48.200;12.418;2022-10-15T10:49:36;96470.81;;;19.20;57.26
50977;BME280;36992;48.200;12.418;2022-10-15T10:52:05;96462.63;;;19.20;56.99
50977;BME280;36992;48.200;12.418;2022-10-15T10:54:33;96460.41;;;19.26;57.82
50977;BME280;36992;48.200;12.418;2022-10-15T10:56:59;96459.34;;;19.31;58.02
50977;BME280;36992;48.200;12.418;2022-10-15T10:59:29;96463.81;;;19.39;58.29
50977;BME280;36992;48.200;12.418;2022-10-15T11:01:58;96456.84;;;19.41;58.13
50977;BME280;36992;48.200;12.418;2022-10-15T11:04:26;96458.53;;;19.46;58.77
50977;BME280;36992;48.200;12.418;2022-10-15T11:06:59;96460.34;;;19.58;58.15
50977;BME280;36992;48.200;12.418;2022-10-15T11:09:41;96459.31;;;19.66;57.89
50977;BME280;36992;48.200;12.418;2022-10-15T11:12:29;96463.34;;;19.73;58.54
50977;BME280;36992;48.200;12.418;2022-10-15T11:15:13;96462.72;;;19.79;57.35
50977;BME280;36992;48.200;12.418;2022-10-15T11:17:46;96464.03;;;19.86;57.35
50977;BME280;36992;48.200;12.418;2022-10-15T11:20:18;96461.44;;;19.93;57.31
50977;BME280;36992;48.200;12.418;2022-10-15T11:22:58;96457.72;;;20.01;57.61
50977;BME280;36992;48.200;12.418;2022-10-15T11:25:34;96457.06;;;20.08;57.18
50977;BME280;36992;48.200;12.418;2022-10-15T11:28:13;96456.44;;;20.15;57.21
50977;BME280;36992;48.200;12.418;2022-10-15T11:30:50;96463.59;;;20.23;57.54
50977;BME280;36992;48.200;12.418;2022-10-15T11:33:36;96455.09;;;20.28;56.62
50977;BME280;36992;48.200;12.418;2022-10-15T11:39:07;96452.28;;;20.44;56.70
50977;BME280;36992;48.200;12.418;2022-10-15T11:41:48;96441.03;;;20.49;56.16
50977;BME280;36992;48.200;12.418;2022-10-15T11:44:37;96446.25;;;20.58;56.65
50977;BME280;36992;48.200;12.418;2022-10-15T11:47:16;96441.63;;;20.62;55.92
50977;BME280;36992;48.200;12.418;2022-10-15T11:49:57;96447.94;;;20.67;55.72
50977;BME280;36992;48.200;12.418;2022-10-15T11:52:41;96450.00;;;20.73;55.83
50977;BME280;36992;48.200;12.418;2022-10-15T11:55:17;96443.00;;;20.76;55.29
50977;BME280;36992;48.200;12.418;2022-10-15T11:57:48;96439.56;;;20.79;55.03
50977;BME280;36992;48.200;12.418;2022-10-15T12:00:27;96442.34;;;20.83;55.76
50977;BME280;36992;48.200;12.418;2022-10-15T12:02:59;96442.44;;;20.86;55.32
50977;BME280;36992;48.200;12.418;2022-10-15T12:05:32;96443.66;;;20.89;55.48
50977;BME280;36992;48.200;12.418;2022-10-15T12:08:02;96442.84;;;20.88;55.25
50977;BME280;36992;48.200;12.418;2022-10-15T12:10:38;96437.06;;;20.94;55.22
50977;BME280;36992;48.200;12.418;2022-10-15T12:13:17;96434.34;;;20.94;55.53
50977;BME280;36992;48.200;12.418;2022-10-15T12:15:50;96438.28;;;20.96;55.25
50977;BME280;36992;48.200;12.418;2022-10-15T12:18:27;96435.91;;;20.95;54.77
50977;BME280;36992;48.200;12.418;2022-10-15T12:20:58;96430.38;;;20.91;54.57
50977;BME280;36992;48.200;12.418;2022-10-15T12:23:38;96438.34;;;21.00;55.29
50977;BME280;36992;48.200;12.418;2022-10-15T12:26:25;96436.03;;;21.02;55.32
50977;BME280;36992;48.200;12.418;2022-10-15T12:28:56;96428.97;;;21.01;55.62
50977;BME280;36992;48.200;12.418;2022-10-15T12:31:23;96434.34;;;20.94;54.63
50977;BME280;36992;48.200;12.418;2022-10-15T12:33:51;96432.09;;;20.99;54.83
50977;BME280;36992;48.200;12.418;2022-10-15T12:36:23;96435.28;;;21.05;54.46
50977;BME280;36992;48.200;12.418;2022-10-15T12:38:56;96434.50;;;21.05;54.23
50977;BME280;36992;48.200;12.418;2022-10-15T12:41:34;96434.56;;;21.08;53.93
50977;BME280;36992;48.200;12.418;2022-10-15T12:44:13;96430.66;;;21.09;54.07
50977;BME280;36992;48.200;12.418;2022-10-15T12:46:43;96433.00;;;21.11;53.83
50977;BME280;36992;48.200;12.418;2022-10-15T12:49:44;96439.44;;;21.22;54.54
50977;BME280;36992;48.200;12.418;2022-10-15T12:52:50;96442.22;;;21.26;54.20
50977;BME280;36992;48.200;12.418;2022-10-15T12:55:28;96441.59;;;21.36;54.00
50977;BME280;36992;48.200;12.418;2022-10-15T12:58:00;96450.44;;;21.26;51.83
50977;BME280;36992;48.200;12.418;2022-10-15T13:00:41;96442.66;;;21.28;52.32
50977;BME280;36992;48.200;12.418;2022-10-15T13:03:32;96443.44;;;21.28;51.73
50977;BME280;36992;48.200;12.418;2022-10-15T13:06:23;96451.31;;;21.30;50.97
50977;BME280;36992;48.200;12.418;2022-10-15T13:08:53;96442.63;;;21.24;50.35